Valgardena — ICKG — position and weather

sailwx.info

Track history (hours):
 
Tides and Currents Weather Stations Pressure Air Temp Water Temp Dewpoint Dewpoint Depression Visibility Wind Speed Wind Dir Waves Ship Positions

Valgardena

Last reported at 2015-Sep-03 16:33 UTC. Time now 2015-Sep-03 17:15 UTC.
Position N 37°24' E 023°56'.

Length 184 m; draft 11.3 m.

Type: Ship. MMSI: 247243800.

Date/timePositionNaut miles runAvg speedWind from/ knotsBaromVisibWave heightAir tempDewpointWater temp
2015-Sep-03 16:33N 37°24' E 023°56'1212.1
2015-Sep-03 15:33N 37°33' E 024°07'1212.0
2015-Sep-03 14:33N 37°43' E 024°15'1412.4
2015-Sep-03 13:25N 37°52' E 024°29'3211.1
2015-Sep-03 10:33N 38°14' E 024°58'242 7.3
2015-Sep-02 01:22N 40°56' E 028°51'5 6.1
2015-Sep-02 00:32N 40°58' E 028°58'1211.1
2015-Sep-01 23:28N 41°08' E 029°04'258 6.9
2015-Aug-31 10:14N 42°20' E 034°37'811.9
2015-Aug-31 09:34N 42°21' E 034°47'1711.8
2015-Aug-31 08:09N 42°21' E 035°10'811.9
2015-Aug-31 07:30N 42°21' E 035°20'16212.4
2015-Aug-30 18:28N 42°21' E 038°60'1212.7
2015-Aug-30 17:33N 42°21' E 039°15'4912.3
2015-Aug-30 13:33N 42°19' E 040°22'  
Track history (hours):
 
Tides and Currents Weather Stations Pressure Air Temp Water Temp Dewpoint Dewpoint Depression Visibility Wind Speed Wind Dir Waves Ship Positions

Valgardena

Last reported at 2015-Sep-03 16:33 UTC. Time now 2015-Sep-03 17:15 UTC.
Position N 37°24' E 023°56'.

Length 184 m; draft 11.3 m.

Type: Ship. MMSI: 247243800.

Date/timePositionNaut miles runAvg speedWind from/ knotsBaromVisibWave heightAir tempDewpointWater temp
2015-Sep-03 16:33N 37°24' E 023°56'1212.1
2015-Sep-03 15:33N 37°33' E 024°07'1212.0
2015-Sep-03 14:33N 37°43' E 024°15'1412.4
2015-Sep-03 13:25N 37°52' E 024°29'3211.1
2015-Sep-03 10:33N 38°14' E 024°58'242 7.3
2015-Sep-02 01:22N 40°56' E 028°51'5 6.1
2015-Sep-02 00:32N 40°58' E 028°58'1211.1
2015-Sep-01 23:28N 41°08' E 029°04'258 6.9
2015-Aug-31 10:14N 42°20' E 034°37'811.9
2015-Aug-31 09:34N 42°21' E 034°47'1711.8
2015-Aug-31 08:09N 42°21' E 035°10'811.9
2015-Aug-31 07:30N 42°21' E 035°20'16212.4
2015-Aug-30 18:28N 42°21' E 038°60'1212.7
2015-Aug-30 17:33N 42°21' E 039°15'4912.3
2015-Aug-30 13:33N 42°19' E 040°22'  

Dump ship's entire track history